airtonjo.com alexa rank chart, airtonjo.com alexa rank daily changes

airtonjo.com alexa rank chart, airtonjo.com alexa rank daily changes

airtonjo.com
Actual rank:
372 689

RANK HISTORY

Date Rank Diff
2016/12/06 372 689 -811
2016/12/05 373 500 -6 349
2016/12/04 379 849 +10 199
2016/12/02 369 650 +5 647
2016/12/01 364 003 +4 496
2016/11/30 359 507 +1 861
2016/11/29 357 646 -5 405
2016/11/28 363 051 +1 646
2016/11/27 361 405 +58 797
2016/11/26 302 608 +47 538
2016/11/25 255 070 +50 173
2016/11/24 204 897 +18 639
2016/11/23 186 258 +49 131
2016/11/19 137 127 +8 810
2016/11/18 128 317 +11 925
2016/11/17 116 392 +10 331
2016/11/16 106 061 +4 383
2016/11/15 101 678 +3 860
2016/11/14 97 818 +5 384
2016/11/13 92 434 +3 026
2016/11/12 89 408 +1 443
2016/11/11 87 965 +6 512
2016/11/10 81 453 +4 449
2016/11/09 77 004 +2 344
2016/11/08 74 660 +731
2016/11/07 73 929 +1 847
2016/11/06 72 082 +1 867
2016/11/05 70 215 +870
2016/11/04 69 345 +1 142
2016/11/03 68 203 +3 281
2016/11/02 64 922 +603
2016/11/01 64 319 +1 203
2016/10/31 63 116 +1 209
2016/10/30 61 907 +1 109
2016/10/29 60 798 +1 166
2016/10/28 59 632 +1 083
2016/10/27 58 549 +1 400
2016/10/26 57 149 +1 477
2016/10/25 55 672 -1 785
2016/10/24 57 457 -41
2016/10/23 57 498 -273
2016/10/22 57 771 -15
2016/10/21 57 786 -728
2016/10/20 58 514 +1 169
2016/10/19 57 345 +1 407
2016/10/18 55 938 -832
2016/10/17 56 770 -1 698
2016/10/16 58 468 -1 051
2016/10/15 59 519 -74 986
2016/10/14 134 505 -4 388
2016/10/13 138 893 -9 796
2016/10/12 148 689 -11 030
2016/10/11 159 719 -14 475
2016/10/10 174 194 -6 348
2016/10/09 180 542 -32 022
2016/10/08 212 564 +137 673
2016/10/07 74 891

WIDGET FOR YOUR SITE

DOMAINS WITH THE NEAREST RANK

Domain Rank
putonghuaweb.com 372 684
fixsearch.info 372 685
happyou.info 372 686
gazetapress.com 372 687
vitki.info 372 688
airtonjo.com 372 689
asia.com 372 690
kineticztydnfjmy.online 372 691
saturdayclub.com 372 692
gercekciftci.com 372 693
osvitaportal.com.ua 372 694

DOMAINS WITH THE NEAREST RANK BY TLD .com

Domain Rank
molnlycke.com 372 680
ota42y.com 372 681
galant-club.com 372 683
putonghuaweb.com 372 684
gazetapress.com 372 687
airtonjo.com 372 689
asia.com 372 690
saturdayclub.com 372 692
gercekciftci.com 372 693
valuebound.com 372 695
sefaira.com 372 700